sensor_id;sensor_type;location;lat;lon;timestamp;temperature;humidity
30063;DHT22;16889;67.864;24.990;2022-07-18T00:02:06;12.10;99.90
30063;DHT22;16889;67.864;24.990;2022-07-18T00:06:52;12.10;99.90
30063;DHT22;16889;67.864;24.990;2022-07-18T00:11:38;12.20;99.90
30063;DHT22;16889;67.864;24.990;2022-07-18T00:16:24;12.00;99.90
30063;DHT22;16889;67.864;24.990;2022-07-18T00:21:11;11.90;99.90
30063;DHT22;16889;67.864;24.990;2022-07-18T00:25:57;12.00;99.90
30063;DHT22;16889;67.864;24.990;2022-07-18T00:30:43;12.20;99.90
30063;DHT22;16889;67.864;24.990;2022-07-18T00:35:29;12.20;99.90
30063;DHT22;16889;67.864;24.990;2022-07-18T00:40:15;12.20;99.90
30063;DHT22;16889;67.864;24.990;2022-07-18T00:45:01;12.20;99.90
30063;DHT22;16889;67.864;24.990;2022-07-18T00:49:48;12.20;99.90
30063;DHT22;16889;67.864;24.990;2022-07-18T00:54:34;12.10;99.90
30063;DHT22;16889;67.864;24.990;2022-07-18T00:59:20;11.90;99.90
30063;DHT22;16889;67.864;24.990;2022-07-18T01:04:06;12.10;99.90
30063;DHT22;16889;67.864;24.990;2022-07-18T01:08:52;12.10;99.90
30063;DHT22;16889;67.864;24.990;2022-07-18T01:13:38;12.20;99.90
30063;DHT22;16889;67.864;24.990;2022-07-18T01:18:24;12.10;99.90
30063;DHT22;16889;67.864;24.990;2022-07-18T01:23:11;12.10;99.90
30063;DHT22;16889;67.864;24.990;2022-07-18T01:27:58;12.20;99.90
30063;DHT22;16889;67.864;24.990;2022-07-18T01:32:44;12.30;99.90
30063;DHT22;16889;67.864;24.990;2022-07-18T01:37:30;12.20;99.90
30063;DHT22;16889;67.864;24.990;2022-07-18T01:42:16;12.10;99.90
30063;DHT22;16889;67.864;24.990;2022-07-18T01:47:04;12.10;99.90
30063;DHT22;16889;67.864;24.990;2022-07-18T01:51:53;11.90;99.90
30063;DHT22;16889;67.864;24.990;2022-07-18T01:56:39;11.90;99.90
30063;DHT22;16889;67.864;24.990;2022-07-18T02:01:25;12.00;99.90
30063;DHT22;16889;67.864;24.990;2022-07-18T02:06:11;12.10;99.90
30063;DHT22;16889;67.864;24.990;2022-07-18T02:10:57;12.30;99.90
30063;DHT22;16889;67.864;24.990;2022-07-18T02:15:43;12.50;99.90
30063;DHT22;16889;67.864;24.990;2022-07-18T02:20:29;12.60;99.90
30063;DHT22;16889;67.864;24.990;2022-07-18T02:25:15;12.80;99.90
30063;DHT22;16889;67.864;24.990;2022-07-18T02:30:01;12.90;99.90
30063;DHT22;16889;67.864;24.990;2022-07-18T02:34:47;13.00;99.90
30063;DHT22;16889;67.864;24.990;2022-07-18T02:39:34;12.80;99.90
30063;DHT22;16889;67.864;24.990;2022-07-18T02:44:20;12.90;99.90
30063;DHT22;16889;67.864;24.990;2022-07-18T02:49:06;13.10;99.90
30063;DHT22;16889;67.864;24.990;2022-07-18T02:53:52;13.10;99.90
30063;DHT22;16889;67.864;24.990;2022-07-18T02:58:38;13.20;99.90
30063;DHT22;16889;67.864;24.990;2022-07-18T03:03:24;13.20;99.90
30063;DHT22;16889;67.864;24.990;2022-07-18T03:08:10;13.40;99.90
30063;DHT22;16889;67.864;24.990;2022-07-18T03:12:56;13.50;99.90
30063;DHT22;16889;67.864;24.990;2022-07-18T03:17:42;13.70;99.90
30063;DHT22;16889;67.864;24.990;2022-07-18T03:22:28;13.70;99.90
30063;DHT22;16889;67.864;24.990;2022-07-18T03:27:14;13.80;99.90
30063;DHT22;16889;67.864;24.990;2022-07-18T03:32:00;13.80;99.90
30063;DHT22;16889;67.864;24.990;2022-07-18T03:36:46;13.90;99.90
30063;DHT22;16889;67.864;24.990;2022-07-18T03:41:32;14.00;99.90
30063;DHT22;16889;67.864;24.990;2022-07-18T03:46:18;14.10;99.90
30063;DHT22;16889;67.864;24.990;2022-07-18T03:51:04;14.20;99.90
30063;DHT22;16889;67.864;24.990;2022-07-18T03:55:50;14.30;99.90
30063;DHT22;16889;67.864;24.990;2022-07-18T04:00:36;14.40;99.90
30063;DHT22;16889;67.864;24.990;2022-07-18T04:05:22;14.50;99.90
30063;DHT22;16889;67.864;24.990;2022-07-18T04:10:09;14.40;99.90
30063;DHT22;16889;67.864;24.990;2022-07-18T04:14:56;14.40;99.90
30063;DHT22;16889;67.864;24.990;2022-07-18T04:19:42;14.30;99.90
30063;DHT22;16889;67.864;24.990;2022-07-18T04:24:28;14.20;99.90
30063;DHT22;16889;67.864;24.990;2022-07-18T04:29:14;14.00;99.90
30063;DHT22;16889;67.864;24.990;2022-07-18T04:34:00;13.80;99.90
30063;DHT22;16889;67.864;24.990;2022-07-18T04:38:46;13.80;99.90
30063;DHT22;16889;67.864;24.990;2022-07-18T04:43:32;13.80;99.90
30063;DHT22;16889;67.864;24.990;2022-07-18T04:48:18;13.90;99.90
30063;DHT22;16889;67.864;24.990;2022-07-18T04:53:04;14.00;99.90
30063;DHT22;16889;67.864;24.990;2022-07-18T04:57:51;14.40;99.90
30063;DHT22;16889;67.864;24.990;2022-07-18T05:02:41;15.10;99.90
30063;DHT22;16889;67.864;24.990;2022-07-18T05:07:27;15.30;99.90
30063;DHT22;16889;67.864;24.990;2022-07-18T05:12:13;15.30;99.90
30063;DHT22;16889;67.864;24.990;2022-07-18T05:16:59;15.30;99.90
30063;DHT22;16889;67.864;24.990;2022-07-18T05:21:45;15.30;99.90
30063;DHT22;16889;67.864;24.990;2022-07-18T05:26:31;15.20;99.90
30063;DHT22;16889;67.864;24.990;2022-07-18T05:31:17;15.00;99.90
30063;DHT22;16889;67.864;24.990;2022-07-18T05:36:04;15.00;99.90
30063;DHT22;16889;67.864;24.990;2022-07-18T05:40:50;14.90;99.90
30063;DHT22;16889;67.864;24.990;2022-07-18T05:45:37;14.80;99.90
30063;DHT22;16889;67.864;24.990;2022-07-18T05:50:24;15.00;99.90
30063;DHT22;16889;67.864;24.990;2022-07-18T05:55:11;16.00;99.90
30063;DHT22;16889;67.864;24.990;2022-07-18T05:59:57;16.60;99.90
30063;DHT22;16889;67.864;24.990;2022-07-18T06:04:43;16.70;99.90
30063;DHT22;16889;67.864;24.990;2022-07-18T06:09:30;16.50;99.90
30063;DHT22;16889;67.864;24.990;2022-07-18T06:14:16;16.40;99.90
30063;DHT22;16889;67.864;24.990;2022-07-18T06:19:03;16.50;99.90
30063;DHT22;16889;67.864;24.990;2022-07-18T06:23:49;16.90;99.90
30063;DHT22;16889;67.864;24.990;2022-07-18T06:28:35;17.50;99.90
30063;DHT22;16889;67.864;24.990;2022-07-18T06:33:22;17.90;99.90
30063;DHT22;16889;67.864;24.990;2022-07-18T06:38:08;17.60;99.90
30063;DHT22;16889;67.864;24.990;2022-07-18T06:42:53;17.00;99.90
30063;DHT22;16889;67.864;24.990;2022-07-18T06:47:40;16.20;99.90
30063;DHT22;16889;67.864;24.990;2022-07-18T06:52:27;15.80;99.90
30063;DHT22;16889;67.864;24.990;2022-07-18T06:57:13;15.30;99.90
30063;DHT22;16889;67.864;24.990;2022-07-18T07:01:59;15.10;99.90
30063;DHT22;16889;67.864;24.990;2022-07-18T07:06:45;15.00;99.90
30063;DHT22;16889;67.864;24.990;2022-07-18T07:11:32;14.80;99.90
30063;DHT22;16889;67.864;24.990;2022-07-18T07:16:18;14.80;99.90
30063;DHT22;16889;67.864;24.990;2022-07-18T07:21:05;14.70;99.90
30063;DHT22;16889;67.864;24.990;2022-07-18T07:25:51;15.30;99.90
30063;DHT22;16889;67.864;24.990;2022-07-18T07:30:37;16.00;99.90
30063;DHT22;16889;67.864;24.990;2022-07-18T07:35:23;16.40;99.90
30063;DHT22;16889;67.864;24.990;2022-07-18T07:40:10;16.70;99.90
30063;DHT22;16889;67.864;24.990;2022-07-18T07:44:56;16.30;99.90
30063;DHT22;16889;67.864;24.990;2022-07-18T07:49:42;16.40;99.90
30063;DHT22;16889;67.864;24.990;2022-07-18T07:54:28;16.50;99.90
30063;DHT22;16889;67.864;24.990;2022-07-18T07:59:14;16.10;99.90
30063;DHT22;16889;67.864;24.990;2022-07-18T08:04:00;15.80;99.90
30063;DHT22;16889;67.864;24.990;2022-07-18T08:08:46;15.90;99.90
30063;DHT22;16889;67.864;24.990;2022-07-18T08:13:32;16.20;99.90
30063;DHT22;16889;67.864;24.990;2022-07-18T08:18:18;16.40;99.90
30063;DHT22;16889;67.864;24.990;2022-07-18T08:23:06;16.20;99.90
30063;DHT22;16889;67.864;24.990;2022-07-18T08:27:52;15.80;99.90
30063;DHT22;16889;67.864;24.990;2022-07-18T08:32:38;15.60;99.90
30063;DHT22;16889;67.864;24.990;2022-07-18T08:37:24;15.60;99.90
30063;DHT22;16889;67.864;24.990;2022-07-18T08:42:11;15.60;99.90
30063;DHT22;16889;67.864;24.990;2022-07-18T08:46:57;15.60;99.90
30063;DHT22;16889;67.864;24.990;2022-07-18T08:51:45;16.20;99.90
30063;DHT22;16889;67.864;24.990;2022-07-18T08:56:31;16.50;99.90
30063;DHT22;16889;67.864;24.990;2022-07-18T09:01:17;16.70;99.90
30063;DHT22;16889;67.864;24.990;2022-07-18T09:06:05;16.80;99.90
30063;DHT22;16889;67.864;24.990;2022-07-18T09:10:52;16.50;99.90
30063;DHT22;16889;67.864;24.990;2022-07-18T09:15:59;16.30;99.90
30063;DHT22;16889;67.864;24.990;2022-07-18T09:20:58;16.00;99.90
30063;DHT22;16889;67.864;24.990;2022-07-18T09:25:44;15.50;99.90
30063;DHT22;16889;67.864;24.990;2022-07-18T09:30:32;15.30;99.90
30063;DHT22;16889;67.864;24.990;2022-07-18T09:35:26;15.40;99.90
30063;DHT22;16889;67.864;24.990;2022-07-18T09:40:25;15.80;99.90
30063;DHT22;16889;67.864;24.990;2022-07-18T09:45:12;15.10;99.90
30063;DHT22;16889;67.864;24.990;2022-07-18T09:49:58;15.30;99.90
30063;DHT22;16889;67.864;24.990;2022-07-18T09:54:44;15.70;99.90
30063;DHT22;16889;67.864;24.990;2022-07-18T09:59:30;16.20;99.90
30063;DHT22;16889;67.864;24.990;2022-07-18T10:04:17;16.20;99.90
30063;DHT22;16889;67.864;24.990;2022-07-18T10:09:03;16.20;99.90
30063;DHT22;16889;67.864;24.990;2022-07-18T10:13:50;16.30;99.90
30063;DHT22;16889;67.864;24.990;2022-07-18T10:18:38;15.90;99.90
30063;DHT22;16889;67.864;24.990;2022-07-18T10:23:38;15.80;99.90
30063;DHT22;16889;67.864;24.990;2022-07-18T10:28:25;16.30;99.90
30063;DHT22;16889;67.864;24.990;2022-07-18T10:33:40;16.50;99.90
30063;DHT22;16889;67.864;24.990;2022-07-18T10:38:26;16.60;99.90
30063;DHT22;16889;67.864;24.990;2022-07-18T10:53:23;17.90;99.90
30063;DHT22;16889;67.864;24.990;2022-07-18T11:03:08;20.50;99.90
30063;DHT22;16889;67.864;24.990;2022-07-18T11:18:08;18.80;99.90
30063;DHT22;16889;67.864;24.990;2022-07-18T11:22:54;18.70;99.90
30063;DHT22;16889;67.864;24.990;2022-07-18T11:27:40;18.60;99.90
30063;DHT22;16889;67.864;24.990;2022-07-18T11:32:26;18.00;99.90
30063;DHT22;16889;67.864;24.990;2022-07-18T11:37:12;17.30;99.90
30063;DHT22;16889;67.864;24.990;2022-07-18T11:41:59;17.30;99.90
30063;DHT22;16889;67.864;24.990;2022-07-18T11:46:47;17.80;99.90
30063;DHT22;16889;67.864;24.990;2022-07-18T11:51:38;17.60;99.90
30063;DHT22;16889;67.864;24.990;2022-07-18T11:56:25;17.00;99.90
30063;DHT22;16889;67.864;24.990;2022-07-18T12:01:12;17.00;99.90
30063;DHT22;16889;67.864;24.990;2022-07-18T12:05:58;17.30;99.90
30063;DHT22;16889;67.864;24.990;2022-07-18T12:10:44;17.30;99.90
30063;DHT22;16889;67.864;24.990;2022-07-18T12:15:47;17.60;99.90
30063;DHT22;16889;67.864;24.990;2022-07-18T12:20:33;18.00;99.90
30063;DHT22;16889;67.864;24.990;2022-07-18T12:25:19;18.50;99.90
30063;DHT22;16889;67.864;24.990;2022-07-18T12:30:10;18.50;99.90
30063;DHT22;16889;67.864;24.990;2022-07-18T12:35:02;18.20;99.90
30063;DHT22;16889;67.864;24.990;2022-07-18T12:39:56;18.20;99.90
30063;DHT22;16889;67.864;24.990;2022-07-18T12:44:43;18.40;99.90
30063;DHT22;16889;67.864;24.990;2022-07-18T12:49:29;18.30;99.90
30063;DHT22;16889;67.864;24.990;2022-07-18T12:54:15;18.20;99.90
30063;DHT22;16889;67.864;24.990;2022-07-18T12:59:01;17.70;99.90
30063;DHT22;16889;67.864;24.990;2022-07-18T13:03:47;17.30;99.90
30063;DHT22;16889;67.864;24.990;2022-07-18T13:08:33;17.10;99.90
30063;DHT22;16889;67.864;24.990;2022-07-18T13:13:19;17.10;99.90
30063;DHT22;16889;67.864;24.990;2022-07-18T13:18:05;17.10;99.90
30063;DHT22;16889;67.864;24.990;2022-07-18T13:22:52;17.10;99.90
30063;DHT22;16889;67.864;24.990;2022-07-18T13:27:38;17.10;99.90
30063;DHT22;16889;67.864;24.990;2022-07-18T13:32:25;16.90;99.90
30063;DHT22;16889;67.864;24.990;2022-07-18T13:37:11;16.70;99.90
30063;DHT22;16889;67.864;24.990;2022-07-18T13:41:57;16.70;99.90
30063;DHT22;16889;67.864;24.990;2022-07-18T13:46:43;16.80;99.90
30063;DHT22;16889;67.864;24.990;2022-07-18T13:51:29;16.60;99.90
30063;DHT22;16889;67.864;24.990;2022-07-18T13:56:15;17.30;99.90
30063;DHT22;16889;67.864;24.990;2022-07-18T14:01:01;18.10;99.90
30063;DHT22;16889;67.864;24.990;2022-07-18T14:05:47;18.60;99.90
30063;DHT22;16889;67.864;24.990;2022-07-18T14:10:34;18.60;99.90
30063;DHT22;16889;67.864;24.990;2022-07-18T14:15:21;18.40;99.90
30063;DHT22;16889;67.864;24.990;2022-07-18T14:20:08;18.20;99.90
30063;DHT22;16889;67.864;24.990;2022-07-18T14:24:54;17.70;99.90
30063;DHT22;16889;67.864;24.990;2022-07-18T14:29:40;17.40;99.90
30063;DHT22;16889;67.864;24.990;2022-07-18T14:34:26;17.10;99.90
30063;DHT22;16889;67.864;24.990;2022-07-18T14:39:12;16.60;99.90
30063;DHT22;16889;67.864;24.990;2022-07-18T14:43:59;16.50;99.90
30063;DHT22;16889;67.864;24.990;2022-07-18T14:48:45;16.40;99.90
30063;DHT22;16889;67.864;24.990;2022-07-18T14:53:34;16.30;99.90
30063;DHT22;16889;67.864;24.990;2022-07-18T14:58:20;16.50;99.90
30063;DHT22;16889;67.864;24.990;2022-07-18T15:03:06;16.50;99.90
30063;DHT22;16889;67.864;24.990;2022-07-18T15:07:52;16.50;99.90
30063;DHT22;16889;67.864;24.990;2022-07-18T15:12:38;16.20;99.90
30063;DHT22;16889;67.864;24.990;2022-07-18T15:17:25;16.00;99.90
30063;DHT22;16889;67.864;24.990;2022-07-18T15:22:11;15.80;99.90
30063;DHT22;16889;67.864;24.990;2022-07-18T15:26:57;15.60;99.90
30063;DHT22;16889;67.864;24.990;2022-07-18T15:31:43;15.30;99.90
30063;DHT22;16889;67.864;24.990;2022-07-18T15:36:29;15.20;99.90
30063;DHT22;16889;67.864;24.990;2022-07-18T15:41:15;15.10;99.90
30063;DHT22;16889;67.864;24.990;2022-07-18T15:46:05;15.20;99.90
30063;DHT22;16889;67.864;24.990;2022-07-18T15:50:51;15.10;99.90
30063;DHT22;16889;67.864;24.990;2022-07-18T15:55:37;15.00;99.90
30063;DHT22;16889;67.864;24.990;2022-07-18T16:00:23;14.80;99.90
30063;DHT22;16889;67.864;24.990;2022-07-18T16:05:09;14.60;99.90
30063;DHT22;16889;67.864;24.990;2022-07-18T16:09:55;14.60;99.90
30063;DHT22;16889;67.864;24.990;2022-07-18T16:14:41;14.50;99.90
30063;DHT22;16889;67.864;24.990;2022-07-18T16:19:27;14.40;99.90
30063;DHT22;16889;67.864;24.990;2022-07-18T16:24:13;14.20;99.90
30063;DHT22;16889;67.864;24.990;2022-07-18T16:28:59;14.20;99.90
30063;DHT22;16889;67.864;24.990;2022-07-18T16:33:46;14.10;99.90
30063;DHT22;16889;67.864;24.990;2022-07-18T16:38:32;14.20;99.90
30063;DHT22;16889;67.864;24.990;2022-07-18T16:43:18;14.10;99.90
30063;DHT22;16889;67.864;24.990;2022-07-18T16:48:04;14.20;99.90
30063;DHT22;16889;67.864;24.990;2022-07-18T16:52:50;14.10;99.90
30063;DHT22;16889;67.864;24.990;2022-07-18T16:57:36;14.00;99.90
30063;DHT22;16889;67.864;24.990;2022-07-18T17:02:23;14.00;99.90
30063;DHT22;16889;67.864;24.990;2022-07-18T17:07:09;14.20;99.90
30063;DHT22;16889;67.864;24.990;2022-07-18T17:11:57;14.30;99.90
30063;DHT22;16889;67.864;24.990;2022-07-18T17:16:43;14.40;99.90
30063;DHT22;16889;67.864;24.990;2022-07-18T17:21:29;14.60;99.90
30063;DHT22;16889;67.864;24.990;2022-07-18T17:26:15;14.70;99.90
30063;DHT22;16889;67.864;24.990;2022-07-18T17:31:02;14.70;99.90
30063;DHT22;16889;67.864;24.990;2022-07-18T17:35:48;14.80;99.90
30063;DHT22;16889;67.864;24.990;2022-07-18T17:40:35;14.80;99.90
30063;DHT22;16889;67.864;24.990;2022-07-18T17:45:21;14.70;99.90
30063;DHT22;16889;67.864;24.990;2022-07-18T17:50:12;14.70;99.90
30063;DHT22;16889;67.864;24.990;2022-07-18T17:54:59;14.60;99.90
30063;DHT22;16889;67.864;24.990;2022-07-18T17:59:45;14.40;99.90
30063;DHT22;16889;67.864;24.990;2022-07-18T18:04:31;14.30;99.90
30063;DHT22;16889;67.864;24.990;2022-07-18T18:09:17;14.30;99.90
30063;DHT22;16889;67.864;24.990;2022-07-18T18:14:03;14.10;99.90
30063;DHT22;16889;67.864;24.990;2022-07-18T18:18:49;14.10;99.90
30063;DHT22;16889;67.864;24.990;2022-07-18T18:23:35;14.00;99.90
30063;DHT22;16889;67.864;24.990;2022-07-18T18:28:22;13.70;99.90
30063;DHT22;16889;67.864;24.990;2022-07-18T18:33:08;13.50;99.90
30063;DHT22;16889;67.864;24.990;2022-07-18T18:37:54;13.50;99.90
30063;DHT22;16889;67.864;24.990;2022-07-18T18:42:40;13.50;99.90
30063;DHT22;16889;67.864;24.990;2022-07-18T18:47:28;13.50;99.90
30063;DHT22;16889;67.864;24.990;2022-07-18T18:52:15;13.60;99.90
30063;DHT22;16889;67.864;24.990;2022-07-18T18:57:01;13.60;99.90
30063;DHT22;16889;67.864;24.990;2022-07-18T19:01:47;13.70;99.90
30063;DHT22;16889;67.864;24.990;2022-07-18T19:06:33;13.70;99.90
30063;DHT22;16889;67.864;24.990;2022-07-18T19:11:20;13.70;99.90
30063;DHT22;16889;67.864;24.990;2022-07-18T19:16:06;13.40;99.90
30063;DHT22;16889;67.864;24.990;2022-07-18T19:20:52;13.20;99.90
30063;DHT22;16889;67.864;24.990;2022-07-18T19:25:39;13.10;99.90
30063;DHT22;16889;67.864;24.990;2022-07-18T19:30:25;13.10;99.90
30063;DHT22;16889;67.864;24.990;2022-07-18T19:35:11;13.20;99.90
30063;DHT22;16889;67.864;24.990;2022-07-18T19:39:57;13.20;99.90
30063;DHT22;16889;67.864;24.990;2022-07-18T19:44:44;13.10;99.90
30063;DHT22;16889;67.864;24.990;2022-07-18T19:49:30;13.10;99.90
30063;DHT22;16889;67.864;24.990;2022-07-18T19:54:16;13.20;99.90
30063;DHT22;16889;67.864;24.990;2022-07-18T19:59:03;13.20;99.90
30063;DHT22;16889;67.864;24.990;2022-07-18T20:03:49;13.20;99.90
30063;DHT22;16889;67.864;24.990;2022-07-18T20:08:35;13.10;99.90
30063;DHT22;16889;67.864;24.990;2022-07-18T20:13:21;13.10;99.90
30063;DHT22;16889;67.864;24.990;2022-07-18T20:18:07;13.10;99.90
30063;DHT22;16889;67.864;24.990;2022-07-18T20:22:54;13.00;99.90
30063;DHT22;16889;67.864;24.990;2022-07-18T20:27:40;13.00;99.90
30063;DHT22;16889;67.864;24.990;2022-07-18T20:32:26;12.90;99.90
30063;DHT22;16889;67.864;24.990;2022-07-18T20:37:12;12.70;99.90
30063;DHT22;16889;67.864;24.990;2022-07-18T20:41:58;12.50;99.90
30063;DHT22;16889;67.864;24.990;2022-07-18T20:46:44;12.50;99.90
30063;DHT22;16889;67.864;24.990;2022-07-18T20:51:30;12.60;99.90
30063;DHT22;16889;67.864;24.990;2022-07-18T20:56:17;12.70;99.90
30063;DHT22;16889;67.864;24.990;2022-07-18T21:01:03;12.60;99.90
30063;DHT22;16889;67.864;24.990;2022-07-18T21:05:49;12.60;99.90
30063;DHT22;16889;67.864;24.990;2022-07-18T21:10:35;12.50;99.90
30063;DHT22;16889;67.864;24.990;2022-07-18T21:15:21;12.50;99.90
30063;DHT22;16889;67.864;24.990;2022-07-18T21:20:11;12.60;99.90
30063;DHT22;16889;67.864;24.990;2022-07-18T21:24:57;12.50;99.90
30063;DHT22;16889;67.864;24.990;2022-07-18T21:29:46;12.40;99.90
30063;DHT22;16889;67.864;24.990;2022-07-18T21:34:32;12.40;99.90
30063;DHT22;16889;67.864;24.990;2022-07-18T21:39:18;12.40;99.90
30063;DHT22;16889;67.864;24.990;2022-07-18T21:44:04;12.30;99.90
30063;DHT22;16889;67.864;24.990;2022-07-18T21:48:50;12.30;99.90
30063;DHT22;16889;67.864;24.990;2022-07-18T21:53:36;12.30;99.90
30063;DHT22;16889;67.864;24.990;2022-07-18T21:58:22;12.30;99.90
30063;DHT22;16889;67.864;24.990;2022-07-18T22:03:08;12.30;99.90
30063;DHT22;16889;67.864;24.990;2022-07-18T22:07:54;12.30;99.90
30063;DHT22;16889;67.864;24.990;2022-07-18T22:12:41;12.30;99.90
30063;DHT22;16889;67.864;24.990;2022-07-18T22:17:27;12.30;99.90
30063;DHT22;16889;67.864;24.990;2022-07-18T22:22:13;12.30;99.90
30063;DHT22;16889;67.864;24.990;2022-07-18T22:26:59;12.30;99.90
30063;DHT22;16889;67.864;24.990;2022-07-18T22:31:47;12.20;99.90
30063;DHT22;16889;67.864;24.990;2022-07-18T22:36:33;12.10;99.90
30063;DHT22;16889;67.864;24.990;2022-07-18T22:41:20;12.20;99.90
30063;DHT22;16889;67.864;24.990;2022-07-18T22:46:06;12.20;99.90
30063;DHT22;16889;67.864;24.990;2022-07-18T22:50:53;12.20;99.90
30063;DHT22;16889;67.864;24.990;2022-07-18T22:55:39;12.00;99.90
30063;DHT22;16889;67.864;24.990;2022-07-18T23:00:25;11.90;99.90
30063;DHT22;16889;67.864;24.990;2022-07-18T23:05:11;11.90;99.90
30063;DHT22;16889;67.864;24.990;2022-07-18T23:10:09;11.70;99.90
30063;DHT22;16889;67.864;24.990;2022-07-18T23:14:55;11.60;99.90
30063;DHT22;16889;67.864;24.990;2022-07-18T23:19:41;11.50;99.90
30063;DHT22;16889;67.864;24.990;2022-07-18T23:24:27;11.50;99.90
30063;DHT22;16889;67.864;24.990;2022-07-18T23:29:13;11.50;99.90
30063;DHT22;16889;67.864;24.990;2022-07-18T23:33:59;11.40;99.90
30063;DHT22;16889;67.864;24.990;2022-07-18T23:38:45;11.40;99.90
30063;DHT22;16889;67.864;24.990;2022-07-18T23:43:31;11.40;99.90
30063;DHT22;16889;67.864;24.990;2022-07-18T23:48:17;11.40;99.90
30063;DHT22;16889;67.864;24.990;2022-07-18T23:53:03;11.40;99.90
30063;DHT22;16889;67.864;24.990;2022-07-18T23:57:49;11.50;99.90
